sensor_id;sensor_type;location;lat;lon;timestamp;temperature;humidity
11140;DHT22;5624;49.388;11.350;2023-02-15T00:01:54;-1.70;99.90
11140;DHT22;5624;49.388;11.350;2023-02-15T00:04:22;-1.90;99.90
11140;DHT22;5624;49.388;11.350;2023-02-15T00:06:49;-1.80;99.90
11140;DHT22;5624;49.388;11.350;2023-02-15T00:09:15;-1.80;99.90
11140;DHT22;5624;49.388;11.350;2023-02-15T00:11:41;-1.80;99.90
11140;DHT22;5624;49.388;11.350;2023-02-15T00:14:18;-1.80;99.90
11140;DHT22;5624;49.388;11.350;2023-02-15T00:16:45;-1.90;99.90
11140;DHT22;5624;49.388;11.350;2023-02-15T00:19:12;-1.80;99.90
11140;DHT22;5624;49.388;11.350;2023-02-15T00:21:39;-1.80;99.90
11140;DHT22;5624;49.388;11.350;2023-02-15T00:24:07;-1.70;99.90
11140;DHT22;5624;49.388;11.350;2023-02-15T00:26:33;-1.80;99.90
11140;DHT22;5624;49.388;11.350;2023-02-15T00:28:59;-1.80;99.90
11140;DHT22;5624;49.388;11.350;2023-02-15T00:31:26;-1.80;99.90
11140;DHT22;5624;49.388;11.350;2023-02-15T00:33:51;-1.80;99.90
11140;DHT22;5624;49.388;11.350;2023-02-15T00:36:17;-1.70;99.90
11140;DHT22;5624;49.388;11.350;2023-02-15T00:38:43;-1.80;99.90
11140;DHT22;5624;49.388;11.350;2023-02-15T00:41:09;-1.90;99.90
11140;DHT22;5624;49.388;11.350;2023-02-15T00:43:35;-1.90;99.90
11140;DHT22;5624;49.388;11.350;2023-02-15T00:46:01;-1.80;99.90
11140;DHT22;5624;49.388;11.350;2023-02-15T00:48:27;-1.90;99.90
11140;DHT22;5624;49.388;11.350;2023-02-15T00:50:55;-1.90;99.90
11140;DHT22;5624;49.388;11.350;2023-02-15T00:53:21;-2.00;99.90
11140;DHT22;5624;49.388;11.350;2023-02-15T00:55:48;-2.00;99.90
11140;DHT22;5624;49.388;11.350;2023-02-15T00:58:14;-2.00;99.90
11140;DHT22;5624;49.388;11.350;2023-02-15T01:00:42;-2.00;99.90
11140;DHT22;5624;49.388;11.350;2023-02-15T01:03:08;-2.00;99.90
11140;DHT22;5624;49.388;11.350;2023-02-15T01:05:34;-2.00;99.90
11140;DHT22;5624;49.388;11.350;2023-02-15T01:08:00;-2.00;99.90
11140;DHT22;5624;49.388;11.350;2023-02-15T01:10:27;-2.00;99.90
11140;DHT22;5624;49.388;11.350;2023-02-15T01:12:53;-2.10;99.90
11140;DHT22;5624;49.388;11.350;2023-02-15T01:15:19;-2.20;99.90
11140;DHT22;5624;49.388;11.350;2023-02-15T01:17:45;-2.20;99.90
11140;DHT22;5624;49.388;11.350;2023-02-15T01:20:14;-2.20;99.90
11140;DHT22;5624;49.388;11.350;2023-02-15T01:22:40;-2.20;99.90
11140;DHT22;5624;49.388;11.350;2023-02-15T01:25:06;-2.20;99.90
11140;DHT22;5624;49.388;11.350;2023-02-15T01:27:32;-2.20;99.90
11140;DHT22;5624;49.388;11.350;2023-02-15T01:29:57;-2.10;99.90
11140;DHT22;5624;49.388;11.350;2023-02-15T01:32:23;-2.10;99.90
11140;DHT22;5624;49.388;11.350;2023-02-15T01:34:48;-2.00;99.90
11140;DHT22;5624;49.388;11.350;2023-02-15T01:37:14;-2.00;99.90
11140;DHT22;5624;49.388;11.350;2023-02-15T01:39:40;-2.10;99.90
11140;DHT22;5624;49.388;11.350;2023-02-15T01:42:07;-2.10;99.90
11140;DHT22;5624;49.388;11.350;2023-02-15T01:49:58;-2.10;99.90
11140;DHT22;5624;49.388;11.350;2023-02-15T01:52:25;-2.00;99.90
11140;DHT22;5624;49.388;11.350;2023-02-15T01:54:51;-2.00;99.90
11140;DHT22;5624;49.388;11.350;2023-02-15T01:57:21;-2.10;99.90
11140;DHT22;5624;49.388;11.350;2023-02-15T01:59:52;-2.10;99.90
11140;DHT22;5624;49.388;11.350;2023-02-15T02:02:20;-2.10;99.90
11140;DHT22;5624;49.388;11.350;2023-02-15T02:04:51;-2.20;99.90
11140;DHT22;5624;49.388;11.350;2023-02-15T02:07:20;-2.30;99.90
11140;DHT22;5624;49.388;11.350;2023-02-15T02:09:46;-2.30;99.90
11140;DHT22;5624;49.388;11.350;2023-02-15T02:12:12;-2.20;99.90
11140;DHT22;5624;49.388;11.350;2023-02-15T02:14:38;-2.20;99.90
11140;DHT22;5624;49.388;11.350;2023-02-15T02:34:14;-2.00;99.90
11140;DHT22;5624;49.388;11.350;2023-02-15T02:36:48;-2.10;99.90
11140;DHT22;5624;49.388;11.350;2023-02-15T02:39:32;-2.10;99.90
11140;DHT22;5624;49.388;11.350;2023-02-15T02:44:49;-2.10;99.90
11140;DHT22;5624;49.388;11.350;2023-02-15T02:47:26;-2.10;99.90
11140;DHT22;5624;49.388;11.350;2023-02-15T02:50:00;-2.10;99.90
11140;DHT22;5624;49.388;11.350;2023-02-15T02:52:47;-2.20;99.90
11140;DHT22;5624;49.388;11.350;2023-02-15T02:55:23;-2.20;99.90
11140;DHT22;5624;49.388;11.350;2023-02-15T02:58:01;-2.20;99.90
11140;DHT22;5624;49.388;11.350;2023-02-15T03:00:32;-2.30;99.90
11140;DHT22;5624;49.388;11.350;2023-02-15T03:03:09;-2.30;99.90
11140;DHT22;5624;49.388;11.350;2023-02-15T03:05:40;-2.30;99.90
11140;DHT22;5624;49.388;11.350;2023-02-15T03:08:08;-2.30;99.90
11140;DHT22;5624;49.388;11.350;2023-02-15T03:10:35;-2.40;99.90
11140;DHT22;5624;49.388;11.350;2023-02-15T03:13:02;-2.40;99.90
11140;DHT22;5624;49.388;11.350;2023-02-15T03:15:34;-2.30;99.90
11140;DHT22;5624;49.388;11.350;2023-02-15T03:18:46;-2.30;99.90
11140;DHT22;5624;49.388;11.350;2023-02-15T03:21:20;-2.30;99.90
11140;DHT22;5624;49.388;11.350;2023-02-15T03:23:52;-2.40;99.90
11140;DHT22;5624;49.388;11.350;2023-02-15T03:26:20;-2.30;99.90
11140;DHT22;5624;49.388;11.350;2023-02-15T03:28:48;-2.30;99.90
11140;DHT22;5624;49.388;11.350;2023-02-15T03:31:17;-2.40;99.90
11140;DHT22;5624;49.388;11.350;2023-02-15T03:33:56;-2.30;99.90
11140;DHT22;5624;49.388;11.350;2023-02-15T03:36:28;-2.30;99.90
11140;DHT22;5624;49.388;11.350;2023-02-15T03:41:44;-2.30;99.90
11140;DHT22;5624;49.388;11.350;2023-02-15T03:44:29;-2.30;99.90
11140;DHT22;5624;49.388;11.350;2023-02-15T03:47:15;-2.30;99.90
11140;DHT22;5624;49.388;11.350;2023-02-15T03:50:02;-2.30;99.90
11140;DHT22;5624;49.388;11.350;2023-02-15T03:52:30;-2.30;99.90
11140;DHT22;5624;49.388;11.350;2023-02-15T03:54:57;-2.30;99.90
11140;DHT22;5624;49.388;11.350;2023-02-15T03:57:25;-2.30;99.90
11140;DHT22;5624;49.388;11.350;2023-02-15T04:00:19;-2.30;99.90
11140;DHT22;5624;49.388;11.350;2023-02-15T04:05:54;-2.50;99.90
11140;DHT22;5624;49.388;11.350;2023-02-15T04:08:19;-2.60;99.90
11140;DHT22;5624;49.388;11.350;2023-02-15T04:10:45;-2.60;99.90
11140;DHT22;5624;49.388;11.350;2023-02-15T04:13:23;-2.60;99.90
11140;DHT22;5624;49.388;11.350;2023-02-15T04:15:49;-2.60;99.90
11140;DHT22;5624;49.388;11.350;2023-02-15T04:18:37;-2.50;99.90
11140;DHT22;5624;49.388;11.350;2023-02-15T04:21:23;-2.50;99.90
11140;DHT22;5624;49.388;11.350;2023-02-15T04:24:09;-2.50;99.90
11140;DHT22;5624;49.388;11.350;2023-02-15T04:26:53;-2.40;99.90
11140;DHT22;5624;49.388;11.350;2023-02-15T04:29:20;-2.40;99.90
11140;DHT22;5624;49.388;11.350;2023-02-15T04:31:46;-2.40;99.90
11140;DHT22;5624;49.388;11.350;2023-02-15T04:34:12;-2.50;99.90
11140;DHT22;5624;49.388;11.350;2023-02-15T04:36:38;-2.50;99.90
11140;DHT22;5624;49.388;11.350;2023-02-15T04:39:05;-2.50;99.90
11140;DHT22;5624;49.388;11.350;2023-02-15T04:41:31;-2.50;99.90
11140;DHT22;5624;49.388;11.350;2023-02-15T04:43:56;-2.40;99.90
11140;DHT22;5624;49.388;11.350;2023-02-15T04:46:22;-2.30;99.90
11140;DHT22;5624;49.388;11.350;2023-02-15T04:48:48;-2.40;99.90
11140;DHT22;5624;49.388;11.350;2023-02-15T04:51:13;-2.40;99.90
11140;DHT22;5624;49.388;11.350;2023-02-15T04:53:39;-2.40;99.90
11140;DHT22;5624;49.388;11.350;2023-02-15T04:56:05;-2.50;99.90
11140;DHT22;5624;49.388;11.350;2023-02-15T04:58:31;-2.40;99.90
11140;DHT22;5624;49.388;11.350;2023-02-15T05:00:57;-2.40;99.90
11140;DHT22;5624;49.388;11.350;2023-02-15T05:03:23;-2.40;99.90
11140;DHT22;5624;49.388;11.350;2023-02-15T05:05:49;-2.40;99.90
11140;DHT22;5624;49.388;11.350;2023-02-15T05:08:14;-2.40;99.90
11140;DHT22;5624;49.388;11.350;2023-02-15T05:10:40;-2.40;99.90
11140;DHT22;5624;49.388;11.350;2023-02-15T05:13:06;-2.40;99.90
11140;DHT22;5624;49.388;11.350;2023-02-15T05:15:31;-2.30;99.90
11140;DHT22;5624;49.388;11.350;2023-02-15T05:17:57;-2.30;99.90
11140;DHT22;5624;49.388;11.350;2023-02-15T05:20:22;-2.30;99.90
11140;DHT22;5624;49.388;11.350;2023-02-15T05:22:48;-2.40;99.90
11140;DHT22;5624;49.388;11.350;2023-02-15T05:25:14;-2.50;99.90
11140;DHT22;5624;49.388;11.350;2023-02-15T05:27:58;-2.60;99.90
11140;DHT22;5624;49.388;11.350;2023-02-15T05:30:42;-2.60;99.90
11140;DHT22;5624;49.388;11.350;2023-02-15T05:33:08;-2.70;99.90
11140;DHT22;5624;49.388;11.350;2023-02-15T05:35:35;-2.80;99.90
11140;DHT22;5624;49.388;11.350;2023-02-15T05:38:01;-2.90;99.90
11140;DHT22;5624;49.388;11.350;2023-02-15T05:40:26;-2.90;99.90
11140;DHT22;5624;49.388;11.350;2023-02-15T05:42:52;-2.80;99.90
11140;DHT22;5624;49.388;11.350;2023-02-15T05:45:17;-2.90;99.90
11140;DHT22;5624;49.388;11.350;2023-02-15T05:47:43;-2.90;99.90
11140;DHT22;5624;49.388;11.350;2023-02-15T05:50:09;-2.90;99.90
11140;DHT22;5624;49.388;11.350;2023-02-15T05:52:36;-2.80;99.90
11140;DHT22;5624;49.388;11.350;2023-02-15T05:55:02;-2.90;99.90
11140;DHT22;5624;49.388;11.350;2023-02-15T05:57:28;-3.00;99.90
11140;DHT22;5624;49.388;11.350;2023-02-15T05:59:54;-3.00;99.90
11140;DHT22;5624;49.388;11.350;2023-02-15T06:02:20;-2.90;99.90
11140;DHT22;5624;49.388;11.350;2023-02-15T06:04:45;-2.90;99.90
11140;DHT22;5624;49.388;11.350;2023-02-15T06:07:11;-2.90;99.90
11140;DHT22;5624;49.388;11.350;2023-02-15T06:09:36;-2.90;99.90
11140;DHT22;5624;49.388;11.350;2023-02-15T06:12:02;-2.90;99.90
11140;DHT22;5624;49.388;11.350;2023-02-15T06:14:28;-2.90;99.90
11140;DHT22;5624;49.388;11.350;2023-02-15T06:16:53;-2.90;99.90
11140;DHT22;5624;49.388;11.350;2023-02-15T06:19:19;-2.80;99.90
11140;DHT22;5624;49.388;11.350;2023-02-15T06:21:45;-2.90;99.90
11140;DHT22;5624;49.388;11.350;2023-02-15T06:24:10;-3.00;99.90
11140;DHT22;5624;49.388;11.350;2023-02-15T06:26:36;-3.00;99.90
11140;DHT22;5624;49.388;11.350;2023-02-15T06:29:01;-3.00;99.90
11140;DHT22;5624;49.388;11.350;2023-02-15T06:31:27;-3.00;99.90
11140;DHT22;5624;49.388;11.350;2023-02-15T06:33:53;-3.10;99.90
11140;DHT22;5624;49.388;11.350;2023-02-15T06:36:29;-3.10;99.90
11140;DHT22;5624;49.388;11.350;2023-02-15T06:38:56;-3.10;99.90
11140;DHT22;5624;49.388;11.350;2023-02-15T06:41:22;-3.10;99.90
11140;DHT22;5624;49.388;11.350;2023-02-15T06:43:48;-3.00;99.90
11140;DHT22;5624;49.388;11.350;2023-02-15T06:46:14;-3.00;99.90
11140;DHT22;5624;49.388;11.350;2023-02-15T06:48:40;-2.90;99.90
11140;DHT22;5624;49.388;11.350;2023-02-15T06:51:06;-2.90;99.90
11140;DHT22;5624;49.388;11.350;2023-02-15T06:53:31;-2.90;99.90
11140;DHT22;5624;49.388;11.350;2023-02-15T06:56:03;-2.80;99.90
11140;DHT22;5624;49.388;11.350;2023-02-15T06:58:35;-2.70;99.90
11140;DHT22;5624;49.388;11.350;2023-02-15T07:01:01;-2.70;99.90
11140;DHT22;5624;49.388;11.350;2023-02-15T07:03:26;-2.60;99.90
11140;DHT22;5624;49.388;11.350;2023-02-15T07:05:57;-2.60;99.90
11140;DHT22;5624;49.388;11.350;2023-02-15T07:08:24;-2.60;99.90
11140;DHT22;5624;49.388;11.350;2023-02-15T07:10:51;-2.50;99.90
11140;DHT22;5624;49.388;11.350;2023-02-15T07:13:17;-2.50;99.90
11140;DHT22;5624;49.388;11.350;2023-02-15T07:15:43;-2.50;99.90
11140;DHT22;5624;49.388;11.350;2023-02-15T07:18:09;-2.50;99.90
11140;DHT22;5624;49.388;11.350;2023-02-15T07:20:37;-2.50;99.90
11140;DHT22;5624;49.388;11.350;2023-02-15T07:23:03;-2.50;99.90
11140;DHT22;5624;49.388;11.350;2023-02-15T07:25:30;-2.50;99.90
11140;DHT22;5624;49.388;11.350;2023-02-15T07:28:00;-2.40;99.90
11140;DHT22;5624;49.388;11.350;2023-02-15T07:30:26;-2.30;99.90
11140;DHT22;5624;49.388;11.350;2023-02-15T07:32:58;-2.20;99.90
11140;DHT22;5624;49.388;11.350;2023-02-15T07:35:54;-2.30;99.90
11140;DHT22;5624;49.388;11.350;2023-02-15T07:38:21;-2.30;99.90
11140;DHT22;5624;49.388;11.350;2023-02-15T07:40:47;-2.20;99.90
11140;DHT22;5624;49.388;11.350;2023-02-15T07:43:13;-2.30;99.90
11140;DHT22;5624;49.388;11.350;2023-02-15T07:45:40;-2.40;99.90
11140;DHT22;5624;49.388;11.350;2023-02-15T07:48:06;-2.30;99.90
11140;DHT22;5624;49.388;11.350;2023-02-15T07:50:33;-2.20;99.90
11140;DHT22;5624;49.388;11.350;2023-02-15T07:53:01;-2.20;99.90
11140;DHT22;5624;49.388;11.350;2023-02-15T07:55:27;-2.30;99.10
11140;DHT22;5624;49.388;11.350;2023-02-15T07:57:53;-2.40;99.90
11140;DHT22;5624;49.388;11.350;2023-02-15T08:00:20;-2.40;99.90
11140;DHT22;5624;49.388;11.350;2023-02-15T08:02:51;-2.30;99.80
11140;DHT22;5624;49.388;11.350;2023-02-15T08:05:37;-2.30;99.20
11140;DHT22;5624;49.388;11.350;2023-02-15T08:08:03;-2.30;99.40
11140;DHT22;5624;49.388;11.350;2023-02-15T08:10:30;-2.20;99.90
11140;DHT22;5624;49.388;11.350;2023-02-15T08:13:14;-2.00;99.90
11140;DHT22;5624;49.388;11.350;2023-02-15T08:15:39;-1.80;99.90
11140;DHT22;5624;49.388;11.350;2023-02-15T08:18:05;-1.90;97.60
11140;DHT22;5624;49.388;11.350;2023-02-15T08:20:30;-1.80;98.30
11140;DHT22;5624;49.388;11.350;2023-02-15T08:22:56;-1.70;98.50
11140;DHT22;5624;49.388;11.350;2023-02-15T08:25:22;-1.60;96.20
11140;DHT22;5624;49.388;11.350;2023-02-15T08:27:47;-1.60;96.10
11140;DHT22;5624;49.388;11.350;2023-02-15T08:30:14;-1.50;96.20
11140;DHT22;5624;49.388;11.350;2023-02-15T08:32:40;-1.50;96.00
11140;DHT22;5624;49.388;11.350;2023-02-15T08:35:05;-1.50;96.60
11140;DHT22;5624;49.388;11.350;2023-02-15T08:37:34;-1.30;96.80
11140;DHT22;5624;49.388;11.350;2023-02-15T08:40:00;-1.20;95.10
11140;DHT22;5624;49.388;11.350;2023-02-15T08:42:25;-1.30;94.40
11140;DHT22;5624;49.388;11.350;2023-02-15T08:44:51;-1.20;95.20
11140;DHT22;5624;49.388;11.350;2023-02-15T08:47:16;-1.10;94.90
11140;DHT22;5624;49.388;11.350;2023-02-15T08:49:42;-1.00;92.90
11140;DHT22;5624;49.388;11.350;2023-02-15T08:52:07;-1.30;94.40
11140;DHT22;5624;49.388;11.350;2023-02-15T08:54:33;-1.20;94.00
11140;DHT22;5624;49.388;11.350;2023-02-15T08:56:59;-1.10;94.10
11140;DHT22;5624;49.388;11.350;2023-02-15T08:59:24;-1.10;94.10
11140;DHT22;5624;49.388;11.350;2023-02-15T09:01:52;-1.10;93.20
11140;DHT22;5624;49.388;11.350;2023-02-15T09:04:19;-1.00;95.00
11140;DHT22;5624;49.388;11.350;2023-02-15T09:06:47;-0.90;93.30
11140;DHT22;5624;49.388;11.350;2023-02-15T09:09:13;-1.00;93.20
11140;DHT22;5624;49.388;11.350;2023-02-15T09:11:40;-1.00;94.70
11140;DHT22;5624;49.388;11.350;2023-02-15T09:14:09;-0.80;94.40
11140;DHT22;5624;49.388;11.350;2023-02-15T09:16:37;-0.70;93.50
11140;DHT22;5624;49.388;11.350;2023-02-15T09:19:03;-0.70;92.50
11140;DHT22;5624;49.388;11.350;2023-02-15T09:21:35;-0.70;92.00
11140;DHT22;5624;49.388;11.350;2023-02-15T09:24:06;-0.80;92.70
11140;DHT22;5624;49.388;11.350;2023-02-15T09:26:34;-0.70;91.70
11140;DHT22;5624;49.388;11.350;2023-02-15T09:29:01;-0.60;92.20
11140;DHT22;5624;49.388;11.350;2023-02-15T09:31:34;-0.60;91.90
11140;DHT22;5624;49.388;11.350;2023-02-15T09:34:02;-0.60;92.00
11140;DHT22;5624;49.388;11.350;2023-02-15T09:36:34;-0.50;91.50
11140;DHT22;5624;49.388;11.350;2023-02-15T09:39:07;-0.40;91.00
11140;DHT22;5624;49.388;11.350;2023-02-15T09:57:44;-0.20;90.20
11140;DHT22;5624;49.388;11.350;2023-02-15T10:03:26;-0.20;91.40
11140;DHT22;5624;49.388;11.350;2023-02-15T10:11:44;0.30;89.40
11140;DHT22;5624;49.388;11.350;2023-02-15T10:28:05;1.30;83.40
11140;DHT22;5624;49.388;11.350;2023-02-15T10:30:41;1.30;83.10
11140;DHT22;5624;49.388;11.350;2023-02-15T10:33:40;1.40;83.40
11140;DHT22;5624;49.388;11.350;2023-02-15T10:36:25;1.50;82.20
11140;DHT22;5624;49.388;11.350;2023-02-15T10:44:29;1.20;82.60
11140;DHT22;5624;49.388;11.350;2023-02-15T10:55:51;0.80;86.10
11140;DHT22;5624;49.388;11.350;2023-02-15T10:58:44;1.10;86.40
11140;DHT22;5624;49.388;11.350;2023-02-15T11:06:21;1.20;85.10
11140;DHT22;5624;49.388;11.350;2023-02-15T11:08:55;1.50;85.20
11140;DHT22;5624;49.388;11.350;2023-02-15T11:11:32;1.40;83.70
11140;DHT22;5624;49.388;11.350;2023-02-15T11:14:03;1.30;84.30
11140;DHT22;5624;49.388;11.350;2023-02-15T11:16:37;1.30;84.30
11140;DHT22;5624;49.388;11.350;2023-02-15T11:19:11;1.40;85.30
11140;DHT22;5624;49.388;11.350;2023-02-15T11:21:42;1.40;84.20
11140;DHT22;5624;49.388;11.350;2023-02-15T11:24:14;1.30;83.70
11140;DHT22;5624;49.388;11.350;2023-02-15T11:27:03;1.30;85.10
11140;DHT22;5624;49.388;11.350;2023-02-15T11:34:58;2.00;84.00
11140;DHT22;5624;49.388;11.350;2023-02-15T11:40:27;2.50;80.30
11140;DHT22;5624;49.388;11.350;2023-02-15T11:43:00;2.50;80.00
11140;DHT22;5624;49.388;11.350;2023-02-15T11:47:53;2.80;78.60
11140;DHT22;5624;49.388;11.350;2023-02-15T11:50:31;2.50;79.50
11140;DHT22;5624;49.388;11.350;2023-02-15T11:53:00;2.30;81.50
11140;DHT22;5624;49.388;11.350;2023-02-15T11:55:27;2.30;80.80
11140;DHT22;5624;49.388;11.350;2023-02-15T11:58:41;2.40;80.30
11140;DHT22;5624;49.388;11.350;2023-02-15T12:00:49;2.40;81.80
11140;DHT22;5624;49.388;11.350;2023-02-15T12:03:46;2.70;80.30
11140;DHT22;5624;49.388;11.350;2023-02-15T12:08:51;3.20;78.50
11140;DHT22;5624;49.388;11.350;2023-02-15T12:11:22;3.40;79.00
11140;DHT22;5624;49.388;11.350;2023-02-15T12:14:03;3.50;76.70
11140;DHT22;5624;49.388;11.350;2023-02-15T12:16:31;3.60;77.20
11140;DHT22;5624;49.388;11.350;2023-02-15T12:18:59;3.90;76.10
11140;DHT22;5624;49.388;11.350;2023-02-15T12:21:30;4.00;75.70
11140;DHT22;5624;49.388;11.350;2023-02-15T12:26:43;4.50;73.30
11140;DHT22;5624;49.388;11.350;2023-02-15T12:29:30;4.70;73.20
11140;DHT22;5624;49.388;11.350;2023-02-15T12:31:59;5.00;72.90
11140;DHT22;5624;49.388;11.350;2023-02-15T12:34:29;5.20;71.70
11140;DHT22;5624;49.388;11.350;2023-02-15T12:36:58;5.40;70.40
11140;DHT22;5624;49.388;11.350;2023-02-15T12:39:30;5.30;69.50
11140;DHT22;5624;49.388;11.350;2023-02-15T12:42:08;5.20;70.70
11140;DHT22;5624;49.388;11.350;2023-02-15T12:47:24;5.00;70.40
11140;DHT22;5624;49.388;11.350;2023-02-15T12:52:45;5.20;71.10
11140;DHT22;5624;49.388;11.350;2023-02-15T12:55:25;5.00;70.00
11140;DHT22;5624;49.388;11.350;2023-02-15T12:58:15;4.80;70.20
11140;DHT22;5624;49.388;11.350;2023-02-15T13:00:42;4.80;71.50
11140;DHT22;5624;49.388;11.350;2023-02-15T13:03:17;4.90;71.80
11140;DHT22;5624;49.388;11.350;2023-02-15T13:05:46;4.80;71.80
11140;DHT22;5624;49.388;11.350;2023-02-15T13:08:14;4.60;71.70
11140;DHT22;5624;49.388;11.350;2023-02-15T13:10:56;4.60;73.80
11140;DHT22;5624;49.388;11.350;2023-02-15T13:13:31;4.40;73.80
11140;DHT22;5624;49.388;11.350;2023-02-15T13:16:07;4.50;74.60
11140;DHT22;5624;49.388;11.350;2023-02-15T13:18:38;4.50;74.70
11140;DHT22;5624;49.388;11.350;2023-02-15T13:21:10;4.60;73.80
11140;DHT22;5624;49.388;11.350;2023-02-15T13:23:38;4.70;74.20
11140;DHT22;5624;49.388;11.350;2023-02-15T13:26:08;4.60;73.90
11140;DHT22;5624;49.388;11.350;2023-02-15T13:28:54;4.50;73.00
11140;DHT22;5624;49.388;11.350;2023-02-15T13:31:25;4.40;73.90
11140;DHT22;5624;49.388;11.350;2023-02-15T13:34:11;4.40;73.50
11140;DHT22;5624;49.388;11.350;2023-02-15T13:36:49;4.40;74.70
11140;DHT22;5624;49.388;11.350;2023-02-15T13:39:34;4.70;74.90
11140;DHT22;5624;49.388;11.350;2023-02-15T13:42:19;4.80;73.10
11140;DHT22;5624;49.388;11.350;2023-02-15T13:51:05;4.60;74.10
11140;DHT22;5624;49.388;11.350;2023-02-15T14:01:58;4.20;75.90
11140;DHT22;5624;49.388;11.350;2023-02-15T14:26:25;3.80;76.30
11140;DHT22;5624;49.388;11.350;2023-02-15T14:29:20;3.80;76.50
11140;DHT22;5624;49.388;11.350;2023-02-15T14:31:54;3.60;76.70
11140;DHT22;5624;49.388;11.350;2023-02-15T14:34:30;3.60;78.00
11140;DHT22;5624;49.388;11.350;2023-02-15T14:36:57;3.40;77.60
11140;DHT22;5624;49.388;11.350;2023-02-15T14:39:37;3.50;77.40
11140;DHT22;5624;49.388;11.350;2023-02-15T14:42:42;3.40;78.10
11140;DHT22;5624;49.388;11.350;2023-02-15T14:45:47;3.30;78.40
11140;DHT22;5624;49.388;11.350;2023-02-15T14:48:20;3.30;78.80
11140;DHT22;5624;49.388;11.350;2023-02-15T14:50:47;3.10;80.10
11140;DHT22;5624;49.388;11.350;2023-02-15T14:53:37;3.00;80.50
11140;DHT22;5624;49.388;11.350;2023-02-15T14:56:13;3.00;81.10
11140;DHT22;5624;49.388;11.350;2023-02-15T15:01:29;2.90;82.20
11140;DHT22;5624;49.388;11.350;2023-02-15T15:04:08;2.90;81.80
11140;DHT22;5624;49.388;11.350;2023-02-15T15:06:36;2.70;82.20
11140;DHT22;5624;49.388;11.350;2023-02-15T15:09:22;2.70;82.60
11140;DHT22;5624;49.388;11.350;2023-02-15T15:11:51;2.60;83.00
11140;DHT22;5624;49.388;11.350;2023-02-15T15:16:59;2.60;83.80
11140;DHT22;5624;49.388;11.350;2023-02-15T15:22:26;2.50;82.60
11140;DHT22;5624;49.388;11.350;2023-02-15T15:25:07;2.40;83.30
11140;DHT22;5624;49.388;11.350;2023-02-15T15:32:54;2.10;83.90
11140;DHT22;5624;49.388;11.350;2023-02-15T15:49:14;1.60;86.40
11140;DHT22;5624;49.388;11.350;2023-02-15T15:51:42;1.50;86.20
11140;DHT22;5624;49.388;11.350;2023-02-15T15:54:34;1.40;86.90
11140;DHT22;5624;49.388;11.350;2023-02-15T15:57:04;1.30;87.20
11140;DHT22;5624;49.388;11.350;2023-02-15T15:59:33;1.30;87.70
11140;DHT22;5624;49.388;11.350;2023-02-15T16:02:07;1.30;87.60
11140;DHT22;5624;49.388;11.350;2023-02-15T16:04:34;1.20;88.20
11140;DHT22;5624;49.388;11.350;2023-02-15T16:10:20;1.00;89.00
11140;DHT22;5624;49.388;11.350;2023-02-15T16:12:47;0.90;89.30
11140;DHT22;5624;49.388;11.350;2023-02-15T16:15:17;0.90;89.50
11140;DHT22;5624;49.388;11.350;2023-02-15T16:17:47;0.80;90.10
11140;DHT22;5624;49.388;11.350;2023-02-15T16:20:34;0.70;90.30
11140;DHT22;5624;49.388;11.350;2023-02-15T16:23:05;0.60;91.00
11140;DHT22;5624;49.388;11.350;2023-02-15T16:26:05;0.50;91.30
11140;DHT22;5624;49.388;11.350;2023-02-15T16:28:34;0.40;91.90
11140;DHT22;5624;49.388;11.350;2023-02-15T16:31:14;0.30;92.50
11140;DHT22;5624;49.388;11.350;2023-02-15T16:33:41;0.20;92.30
11140;DHT22;5624;49.388;11.350;2023-02-15T16:36:13;0.10;93.10
11140;DHT22;5624;49.388;11.350;2023-02-15T16:38:59;0.10;93.50
11140;DHT22;5624;49.388;11.350;2023-02-15T16:41:30;0.00;93.70
11140;DHT22;5624;49.388;11.350;2023-02-15T16:44:03;0.00;93.70
11140;DHT22;5624;49.388;11.350;2023-02-15T16:46:33;0.00;94.30
11140;DHT22;5624;49.388;11.350;2023-02-15T16:49:02;0.00;94.60
11140;DHT22;5624;49.388;11.350;2023-02-15T16:51:30;0.00;94.10
11140;DHT22;5624;49.388;11.350;2023-02-15T16:54:00;-0.10;94.70
11140;DHT22;5624;49.388;11.350;2023-02-15T16:56:31;-0.20;95.30
11140;DHT22;5624;49.388;11.350;2023-02-15T16:58:58;-0.20;95.80
11140;DHT22;5624;49.388;11.350;2023-02-15T17:01:27;-0.20;96.30
11140;DHT22;5624;49.388;11.350;2023-02-15T17:04:31;-0.30;96.60
11140;DHT22;5624;49.388;11.350;2023-02-15T17:07:15;-0.40;97.20
11140;DHT22;5624;49.388;11.350;2023-02-15T17:09:55;-0.40;97.70
11140;DHT22;5624;49.388;11.350;2023-02-15T17:12:47;-0.50;98.00
11140;DHT22;5624;49.388;11.350;2023-02-15T17:15:33;-0.50;99.10
11140;DHT22;5624;49.388;11.350;2023-02-15T17:18:50;-0.60;99.50
11140;DHT22;5624;49.388;11.350;2023-02-15T17:20:52;-0.60;99.60
11140;DHT22;5624;49.388;11.350;2023-02-15T17:25:57;-0.60;99.90
11140;DHT22;5624;49.388;11.350;2023-02-15T17:28:26;-0.60;99.90
11140;DHT22;5624;49.388;11.350;2023-02-15T17:30:54;-0.70;99.90
11140;DHT22;5624;49.388;11.350;2023-02-15T17:33:37;-0.60;99.90
11140;DHT22;5624;49.388;11.350;2023-02-15T17:36:18;-0.70;99.90
11140;DHT22;5624;49.388;11.350;2023-02-15T17:41:29;-0.70;99.90
11140;DHT22;5624;49.388;11.350;2023-02-15T17:43:55;-0.70;99.90
11140;DHT22;5624;49.388;11.350;2023-02-15T17:46:21;-0.70;99.90
11140;DHT22;5624;49.388;11.350;2023-02-15T17:48:49;-0.70;99.90
11140;DHT22;5624;49.388;11.350;2023-02-15T17:51:16;-0.70;99.90
11140;DHT22;5624;49.388;11.350;2023-02-15T17:53:43;-0.70;99.90
11140;DHT22;5624;49.388;11.350;2023-02-15T17:56:29;-0.80;99.90
11140;DHT22;5624;49.388;11.350;2023-02-15T17:58:54;-0.80;99.90
11140;DHT22;5624;49.388;11.350;2023-02-15T18:01:21;-0.80;99.90
11140;DHT22;5624;49.388;11.350;2023-02-15T18:04:08;-0.70;99.90
11140;DHT22;5624;49.388;11.350;2023-02-15T18:06:55;-0.80;99.90
11140;DHT22;5624;49.388;11.350;2023-02-15T18:09:40;-0.70;99.90
11140;DHT22;5624;49.388;11.350;2023-02-15T18:12:27;-0.70;99.90
11140;DHT22;5624;49.388;11.350;2023-02-15T18:14:55;-0.70;99.90
11140;DHT22;5624;49.388;11.350;2023-02-15T18:17:42;-0.70;99.90
11140;DHT22;5624;49.388;11.350;2023-02-15T18:20:19;-0.70;99.90
11140;DHT22;5624;49.388;11.350;2023-02-15T18:22:45;-0.70;99.90
11140;DHT22;5624;49.388;11.350;2023-02-15T18:25:16;-0.70;99.90
11140;DHT22;5624;49.388;11.350;2023-02-15T18:27:42;-0.70;99.90
11140;DHT22;5624;49.388;11.350;2023-02-15T18:30:13;-0.80;99.90
11140;DHT22;5624;49.388;11.350;2023-02-15T18:32:40;-0.80;99.90
11140;DHT22;5624;49.388;11.350;2023-02-15T18:35:06;-0.80;99.90
11140;DHT22;5624;49.388;11.350;2023-02-15T18:37:33;-0.80;99.90
11140;DHT22;5624;49.388;11.350;2023-02-15T18:39:59;-0.80;99.90
11140;DHT22;5624;49.388;11.350;2023-02-15T18:42:33;-0.80;99.90
11140;DHT22;5624;49.388;11.350;2023-02-15T18:45:19;-0.80;99.90
11140;DHT22;5624;49.388;11.350;2023-02-15T18:47:46;-0.90;99.90
11140;DHT22;5624;49.388;11.350;2023-02-15T18:50:14;-0.90;99.90
11140;DHT22;5624;49.388;11.350;2023-02-15T18:52:40;-1.00;99.90
11140;DHT22;5624;49.388;11.350;2023-02-15T18:55:22;-1.00;99.90
11140;DHT22;5624;49.388;11.350;2023-02-15T18:57:50;-0.90;99.90
11140;DHT22;5624;49.388;11.350;2023-02-15T19:00:17;-1.00;99.90
11140;DHT22;5624;49.388;11.350;2023-02-15T19:02:44;-1.00;99.90
11140;DHT22;5624;49.388;11.350;2023-02-15T19:05:10;-1.00;99.90